ジャカルタ の空港の天気 - METARとTAF

スカルノハッタ国際空港 ( WIII / CGK ) - インドネシア バンテン州、Cengkareng ( ジャカルタ近郊)
飛行場実況気象(Metar)
観測時間07/22 07:30 WIB (07/22 00:30 UTC)
風向・風速不定 2m/s
視程4700m
天気現象もや
少しの雲 雲底高度 640m
気温26℃
湿度94%
気圧1012hPa
METARWIII 220030Z VRB04KT 4700 BR FEW021 26/25 Q1012 NOSIG
過去の天気等 Google飛行場航空写真 Wunderground天気予報

過去48時間のMETAR

飛行場予報(TAF)
発表時間: 7/22 06:00 WIB (7/21 23:00 UTC)
予報対象時間: 22日7時 WIB ~ 23日13時 WIB
風向・風速東 6m/s
視程10km以上
全天の4割程度の雲 雲底高度 670m
22日21時 WIB ~ 22日23時 WIB に徐々に
風向・風速西南西 3m/s
視程4,000m
天気現象もや
全天の4割程度の雲 雲底高度 610m
TAF WIII 212300Z 2200/2306 09012KT 9999 SCT022
BECMG 2214/2216 24005KT 4000 BR SCT020